Brickell, Florida
Current Conditions -  °F | °C
As of 9:53 PM on Saturday 22 Nov 2014 (Local Time) from KMIA Reporting Station
Overcast Overcast  
Wind Chill: 78°   Ceiling: 2100
Heat Index: 80°   Visibility: 10mi
Dew Point: 71°   Wind: 16mph
Humidity: 79%   Direction: 110°ESE
Pressure: 30.09"   Gusts: 26mph
Location:  25.7676°N, 80.1904°W
Report Text: KMIA 230253Z 11014G23KT 10SM BKN021 BKN028 OVC038 26/22 A3009 RMK AO2 SLP188 60000 T02560217 50003
Loading
Personal Weather Stations






























Interactive Weather Map New forecast layout! Learn more

10-Day Weather Forecast

Advertisements
Track Severe Weather on mobile